sensor_id;sensor_type;location;lat;lon;timestamp;P1;durP1;ratioP1;P2;durP2;ratioP2
22476;SDS011;65006;51.698;-0.292;2023-07-29T00:01:14;1.77;;;0.35;;
22476;SDS011;65006;51.698;-0.292;2023-07-29T00:03:40;1.33;;;0.40;;
22476;SDS011;65006;51.698;-0.292;2023-07-29T00:06:06;2.42;;;0.40;;
22476;SDS011;65006;51.698;-0.292;2023-07-29T00:08:32;0.93;;;0.52;;
22476;SDS011;65006;51.698;-0.292;2023-07-29T00:10:58;3.45;;;0.50;;
22476;SDS011;65006;51.698;-0.292;2023-07-29T00:13:24;0.30;;;0.30;;
22476;SDS011;65006;51.698;-0.292;2023-07-29T00:15:52;1.23;;;0.50;;
22476;SDS011;65006;51.698;-0.292;2023-07-29T00:18:19;1.85;;;0.52;;
22476;SDS011;65006;51.698;-0.292;2023-07-29T00:20:45;0.90;;;0.50;;
22476;SDS011;65006;51.698;-0.292;2023-07-29T00:23:11;0.43;;;0.40;;
22476;SDS011;65006;51.698;-0.292;2023-07-29T00:25:37;1.25;;;0.30;;
22476;SDS011;65006;51.698;-0.292;2023-07-29T00:28:03;0.55;;;0.50;;
22476;SDS011;65006;51.698;-0.292;2023-07-29T00:30:29;2.17;;;0.47;;
22476;SDS011;65006;51.698;-0.292;2023-07-29T00:32:55;1.23;;;0.50;;
22476;SDS011;65006;51.698;-0.292;2023-07-29T00:35:21;2.38;;;0.50;;
22476;SDS011;65006;51.698;-0.292;2023-07-29T00:37:47;0.93;;;0.43;;
22476;SDS011;65006;51.698;-0.292;2023-07-29T00:40:21;1.30;;;0.40;;
22476;SDS011;65006;51.698;-0.292;2023-07-29T00:42:47;1.30;;;0.40;;
22476;SDS011;65006;51.698;-0.292;2023-07-29T00:45:14;3.30;;;0.63;;
22476;SDS011;65006;51.698;-0.292;2023-07-29T00:47:40;2.20;;;0.50;;
22476;SDS011;65006;51.698;-0.292;2023-07-29T00:52:32;2.25;;;0.73;;
22476;SDS011;65006;51.698;-0.292;2023-07-29T00:54:58;3.22;;;0.60;;
22476;SDS011;65006;51.698;-0.292;2023-07-29T00:57:24;2.67;;;0.60;;
22476;SDS011;65006;51.698;-0.292;2023-07-29T00:59:51;2.67;;;0.70;;
22476;SDS011;65006;51.698;-0.292;2023-07-29T01:02:17;3.10;;;0.90;;
22476;SDS011;65006;51.698;-0.292;2023-07-29T01:04:43;1.58;;;0.85;;
22476;SDS011;65006;51.698;-0.292;2023-07-29T01:07:23;1.75;;;0.68;;
22476;SDS011;65006;51.698;-0.292;2023-07-29T01:10:03;1.55;;;0.70;;
22476;SDS011;65006;51.698;-0.292;2023-07-29T01:12:38;3.75;;;0.90;;
22476;SDS011;65006;51.698;-0.292;2023-07-29T01:17:39;1.50;;;0.70;;
22476;SDS011;65006;51.698;-0.292;2023-07-29T01:20:09;1.88;;;1.10;;
22476;SDS011;65006;51.698;-0.292;2023-07-29T01:22:37;1.67;;;0.70;;
22476;SDS011;65006;51.698;-0.292;2023-07-29T01:25:04;1.45;;;0.80;;
22476;SDS011;65006;51.698;-0.292;2023-07-29T01:27:31;2.22;;;1.27;;
22476;SDS011;65006;51.698;-0.292;2023-07-29T01:29:57;0.93;;;0.68;;
22476;SDS011;65006;51.698;-0.292;2023-07-29T01:32:28;4.63;;;0.77;;
22476;SDS011;65006;51.698;-0.292;2023-07-29T01:37:33;1.48;;;0.73;;
22476;SDS011;65006;51.698;-0.292;2023-07-29T01:42:36;1.92;;;0.82;;
22476;SDS011;65006;51.698;-0.292;2023-07-29T01:47:28;2.33;;;1.23;;
22476;SDS011;65006;51.698;-0.292;2023-07-29T01:49:54;2.67;;;1.08;;
22476;SDS011;65006;51.698;-0.292;2023-07-29T01:52:20;1.73;;;1.00;;
22476;SDS011;65006;51.698;-0.292;2023-07-29T01:54:46;4.05;;;1.10;;
22476;SDS011;65006;51.698;-0.292;2023-07-29T01:57:12;4.15;;;1.05;;
22476;SDS011;65006;51.698;-0.292;2023-07-29T01:59:38;6.20;;;1.30;;
22476;SDS011;65006;51.698;-0.292;2023-07-29T02:04:31;3.13;;;1.13;;
22476;SDS011;65006;51.698;-0.292;2023-07-29T02:06:57;2.35;;;1.40;;
22476;SDS011;65006;51.698;-0.292;2023-07-29T02:09:23;3.08;;;1.02;;
22476;SDS011;65006;51.698;-0.292;2023-07-29T02:11:50;5.45;;;1.50;;
22476;SDS011;65006;51.698;-0.292;2023-07-29T02:14:16;3.47;;;1.38;;
22476;SDS011;65006;51.698;-0.292;2023-07-29T02:16:42;4.70;;;1.50;;
22476;SDS011;65006;51.698;-0.292;2023-07-29T02:19:08;3.63;;;1.60;;
22476;SDS011;65006;51.698;-0.292;2023-07-29T02:21:34;3.97;;;1.50;;
22476;SDS011;65006;51.698;-0.292;2023-07-29T02:24:00;2.80;;;1.38;;
22476;SDS011;65006;51.698;-0.292;2023-07-29T02:26:27;3.03;;;1.27;;
22476;SDS011;65006;51.698;-0.292;2023-07-29T02:28:53;4.90;;;1.95;;
22476;SDS011;65006;51.698;-0.292;2023-07-29T02:31:23;1.90;;;1.38;;
22476;SDS011;65006;51.698;-0.292;2023-07-29T02:33:49;2.17;;;1.10;;
22476;SDS011;65006;51.698;-0.292;2023-07-29T02:36:15;2.30;;;1.30;;
22476;SDS011;65006;51.698;-0.292;2023-07-29T02:38:42;4.95;;;1.80;;
22476;SDS011;65006;51.698;-0.292;2023-07-29T02:41:08;5.10;;;1.40;;
22476;SDS011;65006;51.698;-0.292;2023-07-29T02:43:35;3.38;;;1.50;;
22476;SDS011;65006;51.698;-0.292;2023-07-29T02:48:27;7.25;;;1.63;;
22476;SDS011;65006;51.698;-0.292;2023-07-29T02:50:54;2.58;;;1.30;;
22476;SDS011;65006;51.698;-0.292;2023-07-29T02:53:21;3.80;;;1.35;;
22476;SDS011;65006;51.698;-0.292;2023-07-29T02:55:47;3.90;;;1.58;;
22476;SDS011;65006;51.698;-0.292;2023-07-29T02:58:13;7.15;;;1.40;;
22476;SDS011;65006;51.698;-0.292;2023-07-29T03:00:39;3.05;;;1.48;;
22476;SDS011;65006;51.698;-0.292;2023-07-29T03:03:08;4.90;;;1.73;;
22476;SDS011;65006;51.698;-0.292;2023-07-29T03:05:35;3.72;;;1.58;;
22476;SDS011;65006;51.698;-0.292;2023-07-29T03:08:03;1.90;;;1.10;;
22476;SDS011;65006;51.698;-0.292;2023-07-29T03:10:29;5.85;;;1.55;;
22476;SDS011;65006;51.698;-0.292;2023-07-29T03:12:55;6.47;;;1.73;;
22476;SDS011;65006;51.698;-0.292;2023-07-29T03:15:24;1.85;;;1.30;;
22476;SDS011;65006;51.698;-0.292;2023-07-29T03:17:51;4.15;;;1.52;;
22476;SDS011;65006;51.698;-0.292;2023-07-29T03:20:17;3.45;;;1.58;;
22476;SDS011;65006;51.698;-0.292;2023-07-29T03:22:44;3.45;;;1.65;;
22476;SDS011;65006;51.698;-0.292;2023-07-29T03:25:10;5.10;;;1.83;;
22476;SDS011;65006;51.698;-0.292;2023-07-29T03:27:36;3.55;;;1.70;;
22476;SDS011;65006;51.698;-0.292;2023-07-29T03:30:03;4.05;;;1.50;;
22476;SDS011;65006;51.698;-0.292;2023-07-29T03:32:29;3.10;;;1.48;;
22476;SDS011;65006;51.698;-0.292;2023-07-29T03:34:55;7.95;;;2.17;;
22476;SDS011;65006;51.698;-0.292;2023-07-29T03:37:21;7.22;;;1.75;;
22476;SDS011;65006;51.698;-0.292;2023-07-29T03:39:47;4.93;;;1.88;;
22476;SDS011;65006;51.698;-0.292;2023-07-29T03:42:13;2.92;;;1.50;;
22476;SDS011;65006;51.698;-0.292;2023-07-29T03:44:39;3.83;;;1.42;;
22476;SDS011;65006;51.698;-0.292;2023-07-29T03:47:05;3.50;;;2.03;;
22476;SDS011;65006;51.698;-0.292;2023-07-29T03:49:31;7.95;;;2.00;;
22476;SDS011;65006;51.698;-0.292;2023-07-29T03:51:58;8.10;;;1.85;;
22476;SDS011;65006;51.698;-0.292;2023-07-29T03:54:24;6.80;;;1.58;;
22476;SDS011;65006;51.698;-0.292;2023-07-29T03:56:50;6.82;;;1.88;;
22476;SDS011;65006;51.698;-0.292;2023-07-29T03:59:16;3.45;;;1.67;;
22476;SDS011;65006;51.698;-0.292;2023-07-29T04:01:42;3.13;;;1.38;;
22476;SDS011;65006;51.698;-0.292;2023-07-29T04:04:08;4.70;;;1.55;;
22476;SDS011;65006;51.698;-0.292;2023-07-29T04:06:34;2.22;;;1.45;;
22476;SDS011;65006;51.698;-0.292;2023-07-29T04:09:01;3.67;;;1.88;;
22476;SDS011;65006;51.698;-0.292;2023-07-29T04:11:27;5.47;;;1.52;;
22476;SDS011;65006;51.698;-0.292;2023-07-29T04:13:59;4.68;;;2.22;;
22476;SDS011;65006;51.698;-0.292;2023-07-29T04:16:25;7.68;;;1.95;;
22476;SDS011;65006;51.698;-0.292;2023-07-29T04:18:51;3.45;;;1.58;;
22476;SDS011;65006;51.698;-0.292;2023-07-29T04:24:02;3.95;;;1.80;;
22476;SDS011;65006;51.698;-0.292;2023-07-29T04:26:28;5.55;;;1.70;;
22476;SDS011;65006;51.698;-0.292;2023-07-29T04:28:54;6.50;;;1.77;;
22476;SDS011;65006;51.698;-0.292;2023-07-29T04:31:20;6.63;;;1.67;;
22476;SDS011;65006;51.698;-0.292;2023-07-29T04:33:46;7.22;;;1.60;;
22476;SDS011;65006;51.698;-0.292;2023-07-29T04:36:12;3.67;;;1.67;;
22476;SDS011;65006;51.698;-0.292;2023-07-29T04:38:38;6.38;;;1.60;;
22476;SDS011;65006;51.698;-0.292;2023-07-29T04:41:05;8.02;;;1.92;;
22476;SDS011;65006;51.698;-0.292;2023-07-29T04:43:32;3.70;;;1.50;;
22476;SDS011;65006;51.698;-0.292;2023-07-29T04:46:07;5.78;;;1.50;;
22476;SDS011;65006;51.698;-0.292;2023-07-29T04:48:33;7.20;;;1.60;;
22476;SDS011;65006;51.698;-0.292;2023-07-29T04:50:59;3.58;;;1.55;;
22476;SDS011;65006;51.698;-0.292;2023-07-29T04:53:25;3.22;;;1.63;;
22476;SDS011;65006;51.698;-0.292;2023-07-29T04:55:51;10.05;;;1.77;;
22476;SDS011;65006;51.698;-0.292;2023-07-29T04:58:17;6.63;;;1.80;;
22476;SDS011;65006;51.698;-0.292;2023-07-29T05:00:43;4.57;;;1.70;;
22476;SDS011;65006;51.698;-0.292;2023-07-29T05:03:09;5.53;;;1.67;;
22476;SDS011;65006;51.698;-0.292;2023-07-29T05:05:36;6.10;;;1.75;;
22476;SDS011;65006;51.698;-0.292;2023-07-29T05:08:02;3.10;;;1.50;;
22476;SDS011;65006;51.698;-0.292;2023-07-29T05:10:28;5.82;;;1.75;;
22476;SDS011;65006;51.698;-0.292;2023-07-29T05:12:54;4.20;;;1.65;;
22476;SDS011;65006;51.698;-0.292;2023-07-29T05:15:20;2.88;;;1.70;;
22476;SDS011;65006;51.698;-0.292;2023-07-29T05:17:46;7.35;;;1.90;;
22476;SDS011;65006;51.698;-0.292;2023-07-29T05:20:12;4.65;;;1.50;;
22476;SDS011;65006;51.698;-0.292;2023-07-29T05:22:38;3.15;;;1.52;;
22476;SDS011;65006;51.698;-0.292;2023-07-29T05:25:04;8.10;;;2.25;;
22476;SDS011;65006;51.698;-0.292;2023-07-29T05:27:30;7.78;;;2.10;;
22476;SDS011;65006;51.698;-0.292;2023-07-29T05:29:56;4.95;;;1.80;;
22476;SDS011;65006;51.698;-0.292;2023-07-29T05:32:22;3.95;;;1.60;;
22476;SDS011;65006;51.698;-0.292;2023-07-29T05:34:48;4.38;;;2.00;;
22476;SDS011;65006;51.698;-0.292;2023-07-29T05:37:20;2.55;;;1.92;;
22476;SDS011;65006;51.698;-0.292;2023-07-29T05:39:49;5.07;;;2.40;;
22476;SDS011;65006;51.698;-0.292;2023-07-29T05:42:15;5.97;;;1.75;;
22476;SDS011;65006;51.698;-0.292;2023-07-29T05:44:41;4.10;;;1.98;;
22476;SDS011;65006;51.698;-0.292;2023-07-29T05:47:07;3.95;;;1.88;;
22476;SDS011;65006;51.698;-0.292;2023-07-29T05:49:33;4.68;;;1.92;;
22476;SDS011;65006;51.698;-0.292;2023-07-29T05:57:28;4.82;;;1.50;;
22476;SDS011;65006;51.698;-0.292;2023-07-29T05:59:54;6.45;;;1.60;;
22476;SDS011;65006;51.698;-0.292;2023-07-29T06:02:20;4.63;;;1.70;;
22476;SDS011;65006;51.698;-0.292;2023-07-29T06:04:46;3.92;;;1.55;;
22476;SDS011;65006;51.698;-0.292;2023-07-29T06:07:12;4.05;;;1.58;;
22476;SDS011;65006;51.698;-0.292;2023-07-29T06:09:38;6.13;;;1.92;;
22476;SDS011;65006;51.698;-0.292;2023-07-29T06:12:05;5.90;;;1.92;;
22476;SDS011;65006;51.698;-0.292;2023-07-29T06:14:31;4.25;;;2.00;;
22476;SDS011;65006;51.698;-0.292;2023-07-29T06:16:57;4.78;;;1.55;;
22476;SDS011;65006;51.698;-0.292;2023-07-29T06:19:23;2.88;;;1.63;;
22476;SDS011;65006;51.698;-0.292;2023-07-29T06:21:49;5.22;;;2.03;;
22476;SDS011;65006;51.698;-0.292;2023-07-29T06:24:15;3.10;;;1.45;;
22476;SDS011;65006;51.698;-0.292;2023-07-29T06:26:41;6.80;;;2.00;;
22476;SDS011;65006;51.698;-0.292;2023-07-29T06:29:07;8.60;;;2.10;;
22476;SDS011;65006;51.698;-0.292;2023-07-29T06:31:33;4.45;;;1.48;;
22476;SDS011;65006;51.698;-0.292;2023-07-29T06:33:59;4.53;;;1.50;;
22476;SDS011;65006;51.698;-0.292;2023-07-29T06:36:25;10.75;;;1.92;;
22476;SDS011;65006;51.698;-0.292;2023-07-29T06:38:51;4.88;;;1.85;;
22476;SDS011;65006;51.698;-0.292;2023-07-29T06:41:17;9.77;;;1.70;;
22476;SDS011;65006;51.698;-0.292;2023-07-29T06:43:43;4.30;;;1.80;;
22476;SDS011;65006;51.698;-0.292;2023-07-29T06:46:09;6.93;;;2.20;;
22476;SDS011;65006;51.698;-0.292;2023-07-29T06:48:35;9.80;;;1.83;;
22476;SDS011;65006;51.698;-0.292;2023-07-29T06:51:01;3.75;;;1.75;;
22476;SDS011;65006;51.698;-0.292;2023-07-29T06:53:27;9.43;;;2.10;;
22476;SDS011;65006;51.698;-0.292;2023-07-29T06:55:53;2.33;;;1.40;;
22476;SDS011;65006;51.698;-0.292;2023-07-29T06:58:19;5.60;;;1.92;;
22476;SDS011;65006;51.698;-0.292;2023-07-29T07:00:45;3.80;;;1.20;;
22476;SDS011;65006;51.698;-0.292;2023-07-29T07:03:11;4.75;;;1.35;;
22476;SDS011;65006;51.698;-0.292;2023-07-29T07:05:37;5.38;;;1.33;;
22476;SDS011;65006;51.698;-0.292;2023-07-29T07:08:03;3.47;;;1.73;;
22476;SDS011;65006;51.698;-0.292;2023-07-29T07:10:29;3.42;;;1.38;;
22476;SDS011;65006;51.698;-0.292;2023-07-29T07:12:55;2.72;;;1.40;;
22476;SDS011;65006;51.698;-0.292;2023-07-29T07:15:21;3.53;;;1.35;;
22476;SDS011;65006;51.698;-0.292;2023-07-29T07:17:47;4.78;;;1.95;;
22476;SDS011;65006;51.698;-0.292;2023-07-29T07:20:13;5.40;;;1.38;;
22476;SDS011;65006;51.698;-0.292;2023-07-29T07:22:39;2.10;;;1.50;;
22476;SDS011;65006;51.698;-0.292;2023-07-29T07:25:05;3.00;;;1.45;;
22476;SDS011;65006;51.698;-0.292;2023-07-29T07:27:32;3.55;;;1.70;;
22476;SDS011;65006;51.698;-0.292;2023-07-29T07:29:58;4.05;;;1.27;;
22476;SDS011;65006;51.698;-0.292;2023-07-29T07:32:24;3.85;;;1.30;;
22476;SDS011;65006;51.698;-0.292;2023-07-29T07:34:50;4.07;;;1.20;;
22476;SDS011;65006;51.698;-0.292;2023-07-29T07:37:16;1.77;;;1.35;;
22476;SDS011;65006;51.698;-0.292;2023-07-29T07:39:42;4.47;;;1.40;;
22476;SDS011;65006;51.698;-0.292;2023-07-29T07:42:08;6.30;;;1.33;;
22476;SDS011;65006;51.698;-0.292;2023-07-29T07:44:34;1.42;;;0.98;;
22476;SDS011;65006;51.698;-0.292;2023-07-29T07:47:00;4.45;;;1.15;;
22476;SDS011;65006;51.698;-0.292;2023-07-29T07:49:26;2.72;;;1.25;;
22476;SDS011;65006;51.698;-0.292;2023-07-29T07:51:52;2.35;;;1.00;;
22476;SDS011;65006;51.698;-0.292;2023-07-29T07:54:18;3.08;;;1.40;;
22476;SDS011;65006;51.698;-0.292;2023-07-29T07:56:44;1.80;;;1.25;;
22476;SDS011;65006;51.698;-0.292;2023-07-29T07:59:10;2.20;;;0.90;;
22476;SDS011;65006;51.698;-0.292;2023-07-29T08:01:36;3.03;;;1.13;;
22476;SDS011;65006;51.698;-0.292;2023-07-29T08:04:03;2.08;;;1.08;;
22476;SDS011;65006;51.698;-0.292;2023-07-29T08:06:29;8.55;;;1.08;;
22476;SDS011;65006;51.698;-0.292;2023-07-29T08:08:55;6.53;;;1.83;;
22476;SDS011;65006;51.698;-0.292;2023-07-29T08:11:21;1.67;;;1.05;;
22476;SDS011;65006;51.698;-0.292;2023-07-29T08:13:47;3.35;;;1.23;;
22476;SDS011;65006;51.698;-0.292;2023-07-29T08:16:13;4.40;;;0.95;;
22476;SDS011;65006;51.698;-0.292;2023-07-29T08:18:39;2.85;;;0.88;;
22476;SDS011;65006;51.698;-0.292;2023-07-29T08:21:06;1.88;;;0.98;;
22476;SDS011;65006;51.698;-0.292;2023-07-29T08:23:33;3.88;;;1.10;;
22476;SDS011;65006;51.698;-0.292;2023-07-29T08:26:00;3.75;;;0.93;;
22476;SDS011;65006;51.698;-0.292;2023-07-29T08:28:34;2.33;;;0.88;;
22476;SDS011;65006;51.698;-0.292;2023-07-29T08:31:02;3.92;;;1.17;;
22476;SDS011;65006;51.698;-0.292;2023-07-29T08:33:28;1.73;;;0.70;;
22476;SDS011;65006;51.698;-0.292;2023-07-29T08:35:54;1.63;;;1.15;;
22476;SDS011;65006;51.698;-0.292;2023-07-29T08:38:20;1.55;;;0.90;;
22476;SDS011;65006;51.698;-0.292;2023-07-29T08:43:32;2.55;;;1.00;;
22476;SDS011;65006;51.698;-0.292;2023-07-29T08:45:59;1.75;;;0.90;;
22476;SDS011;65006;51.698;-0.292;2023-07-29T08:48:29;2.95;;;0.73;;
22476;SDS011;65006;51.698;-0.292;2023-07-29T08:50:58;1.02;;;0.88;;
22476;SDS011;65006;51.698;-0.292;2023-07-29T08:53:25;3.40;;;0.95;;
22476;SDS011;65006;51.698;-0.292;2023-07-29T08:55:51;4.43;;;0.90;;
22476;SDS011;65006;51.698;-0.292;2023-07-29T08:58:18;1.92;;;0.60;;
22476;SDS011;65006;51.698;-0.292;2023-07-29T09:00:48;2.22;;;0.82;;
22476;SDS011;65006;51.698;-0.292;2023-07-29T09:03:15;1.95;;;0.93;;
22476;SDS011;65006;51.698;-0.292;2023-07-29T09:05:41;1.15;;;0.60;;
22476;SDS011;65006;51.698;-0.292;2023-07-29T09:08:07;3.85;;;1.15;;
22476;SDS011;65006;51.698;-0.292;2023-07-29T09:10:36;2.20;;;1.05;;
22476;SDS011;65006;51.698;-0.292;2023-07-29T09:13:03;2.47;;;1.10;;
22476;SDS011;65006;51.698;-0.292;2023-07-29T09:17:56;2.22;;;1.02;;
22476;SDS011;65006;51.698;-0.292;2023-07-29T09:20:26;2.67;;;0.98;;
22476;SDS011;65006;51.698;-0.292;2023-07-29T09:22:53;2.85;;;1.00;;
22476;SDS011;65006;51.698;-0.292;2023-07-29T09:25:24;2.95;;;1.00;;
22476;SDS011;65006;51.698;-0.292;2023-07-29T09:27:50;2.65;;;1.20;;
22476;SDS011;65006;51.698;-0.292;2023-07-29T09:30:16;3.28;;;0.90;;
22476;SDS011;65006;51.698;-0.292;2023-07-29T09:32:42;2.90;;;1.10;;
22476;SDS011;65006;51.698;-0.292;2023-07-29T09:35:12;4.32;;;1.13;;
22476;SDS011;65006;51.698;-0.292;2023-07-29T09:37:38;1.50;;;0.70;;
22476;SDS011;65006;51.698;-0.292;2023-07-29T09:40:05;1.88;;;0.90;;
22476;SDS011;65006;51.698;-0.292;2023-07-29T09:42:31;2.33;;;1.00;;
22476;SDS011;65006;51.698;-0.292;2023-07-29T09:44:57;2.22;;;0.82;;
22476;SDS011;65006;51.698;-0.292;2023-07-29T09:47:24;3.67;;;0.90;;
22476;SDS011;65006;51.698;-0.292;2023-07-29T09:49:51;3.33;;;0.55;;
22476;SDS011;65006;51.698;-0.292;2023-07-29T09:52:18;3.20;;;0.98;;
22476;SDS011;65006;51.698;-0.292;2023-07-29T09:57:16;4.15;;;1.08;;
22476;SDS011;65006;51.698;-0.292;2023-07-29T09:59:42;3.35;;;0.70;;
22476;SDS011;65006;51.698;-0.292;2023-07-29T10:02:09;1.48;;;0.93;;
22476;SDS011;65006;51.698;-0.292;2023-07-29T10:04:39;0.85;;;0.60;;
22476;SDS011;65006;51.698;-0.292;2023-07-29T10:07:06;0.50;;;0.40;;
22476;SDS011;65006;51.698;-0.292;2023-07-29T10:09:33;1.50;;;0.80;;
22476;SDS011;65006;51.698;-0.292;2023-07-29T10:11:59;5.28;;;0.80;;
22476;SDS011;65006;51.698;-0.292;2023-07-29T10:14:26;1.27;;;0.60;;
22476;SDS011;65006;51.698;-0.292;2023-07-29T10:16:53;2.33;;;0.80;;
22476;SDS011;65006;51.698;-0.292;2023-07-29T10:19:19;2.58;;;0.80;;
22476;SDS011;65006;51.698;-0.292;2023-07-29T10:21:45;4.32;;;0.82;;
22476;SDS011;65006;51.698;-0.292;2023-07-29T10:24:15;1.95;;;0.65;;
22476;SDS011;65006;51.698;-0.292;2023-07-29T10:26:41;2.95;;;0.70;;
22476;SDS011;65006;51.698;-0.292;2023-07-29T10:29:10;3.53;;;0.65;;
22476;SDS011;65006;51.698;-0.292;2023-07-29T10:31:38;0.98;;;0.60;;
22476;SDS011;65006;51.698;-0.292;2023-07-29T10:34:05;2.38;;;0.80;;
22476;SDS011;65006;51.698;-0.292;2023-07-29T10:36:32;2.10;;;1.00;;
22476;SDS011;65006;51.698;-0.292;2023-07-29T10:38:58;2.53;;;1.05;;
22476;SDS011;65006;51.698;-0.292;2023-07-29T10:41:24;2.95;;;0.98;;
22476;SDS011;65006;51.698;-0.292;2023-07-29T10:44:39;3.15;;;1.08;;
22476;SDS011;65006;51.698;-0.292;2023-07-29T10:46:55;2.58;;;1.00;;
22476;SDS011;65006;51.698;-0.292;2023-07-29T10:49:23;1.35;;;0.60;;
22476;SDS011;65006;51.698;-0.292;2023-07-29T10:51:49;3.17;;;0.73;;
22476;SDS011;65006;51.698;-0.292;2023-07-29T10:54:15;1.98;;;0.63;;
22476;SDS011;65006;51.698;-0.292;2023-07-29T10:56:42;2.95;;;0.85;;
22476;SDS011;65006;51.698;-0.292;2023-07-29T11:01:42;2.40;;;0.90;;
22476;SDS011;65006;51.698;-0.292;2023-07-29T11:17:42;2.78;;;0.77;;
22476;SDS011;65006;51.698;-0.292;2023-07-29T11:20:08;3.63;;;0.80;;
22476;SDS011;65006;51.698;-0.292;2023-07-29T11:22:34;3.47;;;0.75;;
22476;SDS011;65006;51.698;-0.292;2023-07-29T11:25:02;2.53;;;0.70;;
22476;SDS011;65006;51.698;-0.292;2023-07-29T11:27:28;2.05;;;0.45;;
22476;SDS011;65006;51.698;-0.292;2023-07-29T11:32:21;1.00;;;0.65;;
22476;SDS011;65006;51.698;-0.292;2023-07-29T11:34:47;1.75;;;0.40;;
22476;SDS011;65006;51.698;-0.292;2023-07-29T11:37:13;1.98;;;0.68;;
22476;SDS011;65006;51.698;-0.292;2023-07-29T11:39:39;1.40;;;0.47;;
22476;SDS011;65006;51.698;-0.292;2023-07-29T11:42:06;1.80;;;0.75;;
22476;SDS011;65006;51.698;-0.292;2023-07-29T11:44:32;4.88;;;0.60;;
22476;SDS011;65006;51.698;-0.292;2023-07-29T11:46:58;3.88;;;0.68;;
22476;SDS011;65006;51.698;-0.292;2023-07-29T11:49:24;1.58;;;0.45;;
22476;SDS011;65006;51.698;-0.292;2023-07-29T11:51:50;0.52;;;0.28;;
22476;SDS011;65006;51.698;-0.292;2023-07-29T11:54:16;2.53;;;0.50;;
22476;SDS011;65006;51.698;-0.292;2023-07-29T11:56:46;3.10;;;0.60;;
22476;SDS011;65006;51.698;-0.292;2023-07-29T11:59:12;3.60;;;0.35;;
22476;SDS011;65006;51.698;-0.292;2023-07-29T12:01:38;1.63;;;0.40;;
22476;SDS011;65006;51.698;-0.292;2023-07-29T12:04:04;1.48;;;0.60;;
22476;SDS011;65006;51.698;-0.292;2023-07-29T12:06:30;2.35;;;0.43;;
22476;SDS011;65006;51.698;-0.292;2023-07-29T12:08:56;0.82;;;0.45;;
22476;SDS011;65006;51.698;-0.292;2023-07-29T12:11:22;2.55;;;0.40;;
22476;SDS011;65006;51.698;-0.292;2023-07-29T12:13:49;4.10;;;0.50;;
22476;SDS011;65006;51.698;-0.292;2023-07-29T12:16:17;1.80;;;0.50;;
22476;SDS011;65006;51.698;-0.292;2023-07-29T12:18:44;2.50;;;0.43;;
22476;SDS011;65006;51.698;-0.292;2023-07-29T12:21:10;1.42;;;0.40;;
22476;SDS011;65006;51.698;-0.292;2023-07-29T12:23:36;3.13;;;0.43;;
22476;SDS011;65006;51.698;-0.292;2023-07-29T12:26:02;1.33;;;0.30;;
22476;SDS011;65006;51.698;-0.292;2023-07-29T12:28:28;0.90;;;0.50;;
22476;SDS011;65006;51.698;-0.292;2023-07-29T12:30:54;3.45;;;0.70;;
22476;SDS011;65006;51.698;-0.292;2023-07-29T12:35:46;4.00;;;0.50;;
22476;SDS011;65006;51.698;-0.292;2023-07-29T12:38:20;2.78;;;0.50;;
22476;SDS011;65006;51.698;-0.292;2023-07-29T12:40:46;3.78;;;0.52;;
22476;SDS011;65006;51.698;-0.292;2023-07-29T12:43:12;4.00;;;0.60;;
22476;SDS011;65006;51.698;-0.292;2023-07-29T12:45:38;1.67;;;0.40;;
22476;SDS011;65006;51.698;-0.292;2023-07-29T12:48:06;4.78;;;0.65;;
22476;SDS011;65006;51.698;-0.292;2023-07-29T12:50:32;2.50;;;0.40;;
22476;SDS011;65006;51.698;-0.292;2023-07-29T12:52:58;4.95;;;0.55;;
22476;SDS011;65006;51.698;-0.292;2023-07-29T12:55:24;0.85;;;0.45;;
22476;SDS011;65006;51.698;-0.292;2023-07-29T12:57:50;1.55;;;0.40;;
22476;SDS011;65006;51.698;-0.292;2023-07-29T13:00:16;4.03;;;0.95;;
22476;SDS011;65006;51.698;-0.292;2023-07-29T13:02:42;2.00;;;0.60;;
22476;SDS011;65006;51.698;-0.292;2023-07-29T13:05:09;1.85;;;0.50;;
22476;SDS011;65006;51.698;-0.292;2023-07-29T13:07:38;1.33;;;0.60;;
22476;SDS011;65006;51.698;-0.292;2023-07-29T13:10:04;2.63;;;0.57;;
22476;SDS011;65006;51.698;-0.292;2023-07-29T13:12:31;2.47;;;0.50;;
22476;SDS011;65006;51.698;-0.292;2023-07-29T13:17:23;6.55;;;0.60;;
22476;SDS011;65006;51.698;-0.292;2023-07-29T13:19:49;2.35;;;0.60;;
22476;SDS011;65006;51.698;-0.292;2023-07-29T13:22:15;2.72;;;0.47;;
22476;SDS011;65006;51.698;-0.292;2023-07-29T13:24:41;0.90;;;0.40;;
22476;SDS011;65006;51.698;-0.292;2023-07-29T13:27:07;2.30;;;0.50;;
22476;SDS011;65006;51.698;-0.292;2023-07-29T13:29:33;1.10;;;0.50;;
22476;SDS011;65006;51.698;-0.292;2023-07-29T13:31:59;1.83;;;0.40;;
22476;SDS011;65006;51.698;-0.292;2023-07-29T13:34:25;0.63;;;0.38;;
22476;SDS011;65006;51.698;-0.292;2023-07-29T13:36:51;4.13;;;0.82;;
22476;SDS011;65006;51.698;-0.292;2023-07-29T13:39:17;1.88;;;0.57;;
22476;SDS011;65006;51.698;-0.292;2023-07-29T13:41:43;0.93;;;0.40;;
22476;SDS011;65006;51.698;-0.292;2023-07-29T13:44:09;2.67;;;0.68;;
22476;SDS011;65006;51.698;-0.292;2023-07-29T13:46:35;2.25;;;0.50;;
22476;SDS011;65006;51.698;-0.292;2023-07-29T13:49:01;5.38;;;0.88;;
22476;SDS011;65006;51.698;-0.292;2023-07-29T13:51:28;5.97;;;0.68;;
22476;SDS011;65006;51.698;-0.292;2023-07-29T13:53:54;1.10;;;0.40;;
22476;SDS011;65006;51.698;-0.292;2023-07-29T13:56:21;5.40;;;0.63;;
22476;SDS011;65006;51.698;-0.292;2023-07-29T13:58:47;0.93;;;0.50;;
22476;SDS011;65006;51.698;-0.292;2023-07-29T14:01:13;1.95;;;0.60;;
22476;SDS011;65006;51.698;-0.292;2023-07-29T14:03:39;2.78;;;0.50;;
22476;SDS011;65006;51.698;-0.292;2023-07-29T14:06:05;4.47;;;0.55;;
22476;SDS011;65006;51.698;-0.292;2023-07-29T14:08:31;2.03;;;0.43;;
22476;SDS011;65006;51.698;-0.292;2023-07-29T14:10:57;1.00;;;0.38;;
22476;SDS011;65006;51.698;-0.292;2023-07-29T14:13:23;1.17;;;0.75;;
22476;SDS011;65006;51.698;-0.292;2023-07-29T14:15:49;3.03;;;0.65;;
22476;SDS011;65006;51.698;-0.292;2023-07-29T14:18:15;4.75;;;0.90;;
22476;SDS011;65006;51.698;-0.292;2023-07-29T14:20:41;3.53;;;0.80;;
22476;SDS011;65006;51.698;-0.292;2023-07-29T14:23:07;1.80;;;0.63;;
22476;SDS011;65006;51.698;-0.292;2023-07-29T14:25:33;3.78;;;0.63;;
22476;SDS011;65006;51.698;-0.292;2023-07-29T14:27:59;4.25;;;0.63;;
22476;SDS011;65006;51.698;-0.292;2023-07-29T14:30:25;2.65;;;0.73;;
22476;SDS011;65006;51.698;-0.292;2023-07-29T14:32:51;4.88;;;0.40;;
22476;SDS011;65006;51.698;-0.292;2023-07-29T14:35:17;7.28;;;0.60;;
22476;SDS011;65006;51.698;-0.292;2023-07-29T14:37:43;0.88;;;0.32;;
22476;SDS011;65006;51.698;-0.292;2023-07-29T14:40:09;4.18;;;0.47;;
22476;SDS011;65006;51.698;-0.292;2023-07-29T14:42:35;3.92;;;0.63;;
22476;SDS011;65006;51.698;-0.292;2023-07-29T14:45:01;3.20;;;0.63;;
22476;SDS011;65006;51.698;-0.292;2023-07-29T14:47:27;3.63;;;0.50;;
22476;SDS011;65006;51.698;-0.292;2023-07-29T14:49:57;4.13;;;0.43;;
22476;SDS011;65006;51.698;-0.292;2023-07-29T14:52:23;4.10;;;0.98;;
22476;SDS011;65006;51.698;-0.292;2023-07-29T14:55:34;2.00;;;0.55;;
22476;SDS011;65006;51.698;-0.292;2023-07-29T14:57:35;4.10;;;0.77;;
22476;SDS011;65006;51.698;-0.292;2023-07-29T15:00:02;2.38;;;0.50;;
22476;SDS011;65006;51.698;-0.292;2023-07-29T15:02:28;2.67;;;0.52;;
22476;SDS011;65006;51.698;-0.292;2023-07-29T15:04:54;4.18;;;0.50;;
22476;SDS011;65006;51.698;-0.292;2023-07-29T15:07:20;2.30;;;0.50;;
22476;SDS011;65006;51.698;-0.292;2023-07-29T15:09:46;1.13;;;0.50;;
22476;SDS011;65006;51.698;-0.292;2023-07-29T15:12:12;0.88;;;0.40;;
22476;SDS011;65006;51.698;-0.292;2023-07-29T15:14:38;1.17;;;0.40;;
22476;SDS011;65006;51.698;-0.292;2023-07-29T15:17:04;1.92;;;0.40;;
22476;SDS011;65006;51.698;-0.292;2023-07-29T15:20:16;2.92;;;0.63;;
22476;SDS011;65006;51.698;-0.292;2023-07-29T15:22:18;1.75;;;0.50;;
22476;SDS011;65006;51.698;-0.292;2023-07-29T15:24:44;2.67;;;0.45;;
22476;SDS011;65006;51.698;-0.292;2023-07-29T15:27:11;3.17;;;0.57;;